sensor_id;sensor_type;location;lat;lon;timestamp;temperature;humidity
11650;DHT22;5881;48.522;7.682;2024-02-21T00:00:53;6.70;99.90
11650;DHT22;5881;48.522;7.682;2024-02-21T00:03:18;6.70;99.90
11650;DHT22;5881;48.522;7.682;2024-02-21T00:05:45;6.70;99.90
11650;DHT22;5881;48.522;7.682;2024-02-21T00:08:10;6.70;99.90
11650;DHT22;5881;48.522;7.682;2024-02-21T00:10:36;6.70;99.90
11650;DHT22;5881;48.522;7.682;2024-02-21T00:13:02;6.70;99.90
11650;DHT22;5881;48.522;7.682;2024-02-21T00:15:27;6.70;99.90
11650;DHT22;5881;48.522;7.682;2024-02-21T00:17:53;6.70;99.90
11650;DHT22;5881;48.522;7.682;2024-02-21T00:20:19;6.80;99.90
11650;DHT22;5881;48.522;7.682;2024-02-21T00:22:45;6.80;99.90
11650;DHT22;5881;48.522;7.682;2024-02-21T00:25:11;6.80;99.90
11650;DHT22;5881;48.522;7.682;2024-02-21T00:27:37;6.80;99.90
11650;DHT22;5881;48.522;7.682;2024-02-21T00:30:03;6.80;99.90
11650;DHT22;5881;48.522;7.682;2024-02-21T00:32:29;6.80;99.90
11650;DHT22;5881;48.522;7.682;2024-02-21T00:34:55;6.70;99.90
11650;DHT22;5881;48.522;7.682;2024-02-21T00:37:20;6.70;99.90
11650;DHT22;5881;48.522;7.682;2024-02-21T00:39:46;6.70;99.90
11650;DHT22;5881;48.522;7.682;2024-02-21T00:42:12;6.60;99.90
11650;DHT22;5881;48.522;7.682;2024-02-21T00:44:37;6.60;99.90
11650;DHT22;5881;48.522;7.682;2024-02-21T00:47:03;6.60;99.90
11650;DHT22;5881;48.522;7.682;2024-02-21T00:49:28;6.60;99.90
11650;DHT22;5881;48.522;7.682;2024-02-21T00:51:54;6.60;99.90
11650;DHT22;5881;48.522;7.682;2024-02-21T00:54:20;6.60;99.90
11650;DHT22;5881;48.522;7.682;2024-02-21T00:56:45;6.60;99.90
11650;DHT22;5881;48.522;7.682;2024-02-21T00:59:11;6.50;99.90
11650;DHT22;5881;48.522;7.682;2024-02-21T01:01:39;6.50;99.90
11650;DHT22;5881;48.522;7.682;2024-02-21T01:04:09;6.50;99.90
11650;DHT22;5881;48.522;7.682;2024-02-21T01:06:34;6.50;99.90
11650;DHT22;5881;48.522;7.682;2024-02-21T01:09:00;6.50;99.90
11650;DHT22;5881;48.522;7.682;2024-02-21T01:11:26;6.60;99.90
11650;DHT22;5881;48.522;7.682;2024-02-21T01:13:51;6.40;99.90
11650;DHT22;5881;48.522;7.682;2024-02-21T01:16:17;6.50;99.90
11650;DHT22;5881;48.522;7.682;2024-02-21T01:18:42;6.50;99.90
11650;DHT22;5881;48.522;7.682;2024-02-21T01:21:08;6.40;99.90
11650;DHT22;5881;48.522;7.682;2024-02-21T01:23:35;6.40;99.90
11650;DHT22;5881;48.522;7.682;2024-02-21T01:26:01;6.40;99.90
11650;DHT22;5881;48.522;7.682;2024-02-21T01:28:27;6.40;99.90
11650;DHT22;5881;48.522;7.682;2024-02-21T01:30:53;6.50;99.90
11650;DHT22;5881;48.522;7.682;2024-02-21T01:33:18;6.50;99.90
11650;DHT22;5881;48.522;7.682;2024-02-21T01:35:44;6.50;99.90
11650;DHT22;5881;48.522;7.682;2024-02-21T01:38:12;6.50;99.90
11650;DHT22;5881;48.522;7.682;2024-02-21T01:40:38;6.40;99.90
11650;DHT22;5881;48.522;7.682;2024-02-21T01:43:03;6.50;99.90
11650;DHT22;5881;48.522;7.682;2024-02-21T01:45:29;6.40;99.90
11650;DHT22;5881;48.522;7.682;2024-02-21T01:47:55;6.40;99.90
11650;DHT22;5881;48.522;7.682;2024-02-21T01:50:22;6.40;99.90
11650;DHT22;5881;48.522;7.682;2024-02-21T01:52:49;6.40;99.90
11650;DHT22;5881;48.522;7.682;2024-02-21T01:55:16;6.50;99.90
11650;DHT22;5881;48.522;7.682;2024-02-21T01:57:43;6.40;99.90
11650;DHT22;5881;48.522;7.682;2024-02-21T02:00:14;6.40;99.90
11650;DHT22;5881;48.522;7.682;2024-02-21T02:02:44;6.50;99.90
11650;DHT22;5881;48.522;7.682;2024-02-21T02:05:14;6.50;99.90
11650;DHT22;5881;48.522;7.682;2024-02-21T02:07:44;6.50;99.90
11650;DHT22;5881;48.522;7.682;2024-02-21T02:10:10;6.50;99.90
11650;DHT22;5881;48.522;7.682;2024-02-21T02:12:36;6.50;99.90
11650;DHT22;5881;48.522;7.682;2024-02-21T02:15:02;6.50;99.90
11650;DHT22;5881;48.522;7.682;2024-02-21T02:17:31;6.50;99.90
11650;DHT22;5881;48.522;7.682;2024-02-21T02:19:56;6.50;99.90
11650;DHT22;5881;48.522;7.682;2024-02-21T02:22:26;6.50;99.90
11650;DHT22;5881;48.522;7.682;2024-02-21T02:24:53;6.50;99.90
11650;DHT22;5881;48.522;7.682;2024-02-21T02:27:19;6.50;99.90
11650;DHT22;5881;48.522;7.682;2024-02-21T02:29:45;6.50;99.90
11650;DHT22;5881;48.522;7.682;2024-02-21T02:32:14;6.50;99.90
11650;DHT22;5881;48.522;7.682;2024-02-21T02:34:39;6.50;99.90
11650;DHT22;5881;48.522;7.682;2024-02-21T02:37:05;6.40;99.90
11650;DHT22;5881;48.522;7.682;2024-02-21T02:39:30;6.40;99.90
11650;DHT22;5881;48.522;7.682;2024-02-21T02:41:56;6.40;99.90
11650;DHT22;5881;48.522;7.682;2024-02-21T02:44:22;6.50;99.90
11650;DHT22;5881;48.522;7.682;2024-02-21T02:46:47;6.40;99.90
11650;DHT22;5881;48.522;7.682;2024-02-21T02:49:13;6.40;99.90
11650;DHT22;5881;48.522;7.682;2024-02-21T02:51:42;6.30;99.90
11650;DHT22;5881;48.522;7.682;2024-02-21T02:54:11;6.30;99.90
11650;DHT22;5881;48.522;7.682;2024-02-21T02:56:37;6.20;99.90
11650;DHT22;5881;48.522;7.682;2024-02-21T02:59:03;6.10;99.90
11650;DHT22;5881;48.522;7.682;2024-02-21T03:01:28;6.10;99.90
11650;DHT22;5881;48.522;7.682;2024-02-21T03:03:54;6.00;99.90
11650;DHT22;5881;48.522;7.682;2024-02-21T03:06:20;6.00;99.90
11650;DHT22;5881;48.522;7.682;2024-02-21T03:08:45;6.00;99.90
11650;DHT22;5881;48.522;7.682;2024-02-21T03:11:11;6.00;99.90
11650;DHT22;5881;48.522;7.682;2024-02-21T03:13:37;5.90;99.90
11650;DHT22;5881;48.522;7.682;2024-02-21T03:16:03;5.90;99.90
11650;DHT22;5881;48.522;7.682;2024-02-21T03:18:28;5.90;99.90
11650;DHT22;5881;48.522;7.682;2024-02-21T03:20:54;5.80;99.90
11650;DHT22;5881;48.522;7.682;2024-02-21T03:23:19;5.80;99.90
11650;DHT22;5881;48.522;7.682;2024-02-21T03:25:45;5.80;99.90
11650;DHT22;5881;48.522;7.682;2024-02-21T03:28:11;5.70;99.90
11650;DHT22;5881;48.522;7.682;2024-02-21T03:30:37;5.70;99.90
11650;DHT22;5881;48.522;7.682;2024-02-21T03:33:03;5.80;99.90
11650;DHT22;5881;48.522;7.682;2024-02-21T03:35:28;5.80;99.90
11650;DHT22;5881;48.522;7.682;2024-02-21T03:37:54;5.70;99.90
11650;DHT22;5881;48.522;7.682;2024-02-21T03:40:20;5.70;99.90
11650;DHT22;5881;48.522;7.682;2024-02-21T03:42:45;5.60;99.90
11650;DHT22;5881;48.522;7.682;2024-02-21T03:45:14;5.60;99.90
11650;DHT22;5881;48.522;7.682;2024-02-21T03:47:39;5.50;99.90
11650;DHT22;5881;48.522;7.682;2024-02-21T03:50:06;5.50;99.90
11650;DHT22;5881;48.522;7.682;2024-02-21T03:52:32;5.40;1.00
11650;DHT22;5881;48.522;7.682;2024-02-21T03:54:57;5.40;1.00
11650;DHT22;5881;48.522;7.682;2024-02-21T03:57:23;5.40;1.00
11650;DHT22;5881;48.522;7.682;2024-02-21T03:59:51;5.20;1.00
11650;DHT22;5881;48.522;7.682;2024-02-21T04:02:17;5.20;1.00
11650;DHT22;5881;48.522;7.682;2024-02-21T04:04:44;5.30;1.00
11650;DHT22;5881;48.522;7.682;2024-02-21T04:07:13;5.00;1.00
11650;DHT22;5881;48.522;7.682;2024-02-21T04:09:38;4.90;1.00
11650;DHT22;5881;48.522;7.682;2024-02-21T04:12:04;4.80;1.00
11650;DHT22;5881;48.522;7.682;2024-02-21T04:14:30;5.00;99.90
11650;DHT22;5881;48.522;7.682;2024-02-21T04:16:55;5.10;99.90
11650;DHT22;5881;48.522;7.682;2024-02-21T04:19:21;5.00;99.90
11650;DHT22;5881;48.522;7.682;2024-02-21T04:21:47;5.00;68.50
11650;DHT22;5881;48.522;7.682;2024-02-21T04:24:12;5.00;99.90
11650;DHT22;5881;48.522;7.682;2024-02-21T04:26:38;5.00;99.90
11650;DHT22;5881;48.522;7.682;2024-02-21T04:29:04;5.00;99.90
11650;DHT22;5881;48.522;7.682;2024-02-21T04:31:31;5.00;80.10
11650;DHT22;5881;48.522;7.682;2024-02-21T04:33:57;4.90;99.90
11650;DHT22;5881;48.522;7.682;2024-02-21T04:36:22;4.90;99.90
11650;DHT22;5881;48.522;7.682;2024-02-21T04:38:52;5.00;99.90
11650;DHT22;5881;48.522;7.682;2024-02-21T04:41:17;5.00;99.90
11650;DHT22;5881;48.522;7.682;2024-02-21T04:43:43;4.90;99.90
11650;DHT22;5881;48.522;7.682;2024-02-21T04:46:08;4.80;99.90
11650;DHT22;5881;48.522;7.682;2024-02-21T04:48:35;4.70;99.90
11650;DHT22;5881;48.522;7.682;2024-02-21T04:51:00;4.70;99.90
11650;DHT22;5881;48.522;7.682;2024-02-21T04:53:26;4.70;1.00
11650;DHT22;5881;48.522;7.682;2024-02-21T04:55:51;4.70;1.00
11650;DHT22;5881;48.522;7.682;2024-02-21T04:58:17;4.60;99.90
11650;DHT22;5881;48.522;7.682;2024-02-21T05:00:43;4.50;1.00
11650;DHT22;5881;48.522;7.682;2024-02-21T05:03:08;4.50;99.90
11650;DHT22;5881;48.522;7.682;2024-02-21T05:05:34;4.50;99.90
11650;DHT22;5881;48.522;7.682;2024-02-21T05:08:00;4.50;99.90
11650;DHT22;5881;48.522;7.682;2024-02-21T05:10:25;4.50;99.90
11650;DHT22;5881;48.522;7.682;2024-02-21T05:12:54;4.40;1.00
11650;DHT22;5881;48.522;7.682;2024-02-21T05:15:19;4.40;1.00
11650;DHT22;5881;48.522;7.682;2024-02-21T05:17:45;4.40;1.00
11650;DHT22;5881;48.522;7.682;2024-02-21T05:20:14;4.40;1.00
11650;DHT22;5881;48.522;7.682;2024-02-21T05:22:40;4.40;1.00
11650;DHT22;5881;48.522;7.682;2024-02-21T05:25:06;4.30;1.00
11650;DHT22;5881;48.522;7.682;2024-02-21T05:27:31;4.30;1.00
11650;DHT22;5881;48.522;7.682;2024-02-21T05:29:57;4.30;99.90
11650;DHT22;5881;48.522;7.682;2024-02-21T05:32:23;4.20;49.80
11650;DHT22;5881;48.522;7.682;2024-02-21T05:34:50;4.20;99.90
11650;DHT22;5881;48.522;7.682;2024-02-21T05:37:16;4.10;99.90
11650;DHT22;5881;48.522;7.682;2024-02-21T05:39:44;4.00;1.00
11650;DHT22;5881;48.522;7.682;2024-02-21T05:42:10;4.10;7.80
11650;DHT22;5881;48.522;7.682;2024-02-21T05:44:35;4.10;99.90
11650;DHT22;5881;48.522;7.682;2024-02-21T05:47:01;4.10;1.00
11650;DHT22;5881;48.522;7.682;2024-02-21T05:49:26;4.10;99.90
11650;DHT22;5881;48.522;7.682;2024-02-21T05:51:52;4.00;1.00
11650;DHT22;5881;48.522;7.682;2024-02-21T05:54:18;4.00;1.00
11650;DHT22;5881;48.522;7.682;2024-02-21T05:56:46;4.10;1.00
11650;DHT22;5881;48.522;7.682;2024-02-21T05:59:12;3.90;1.00
11650;DHT22;5881;48.522;7.682;2024-02-21T06:01:38;4.00;99.90
11650;DHT22;5881;48.522;7.682;2024-02-21T06:04:03;4.00;99.90
11650;DHT22;5881;48.522;7.682;2024-02-21T06:06:30;4.00;99.90
11650;DHT22;5881;48.522;7.682;2024-02-21T06:08:55;4.00;99.90
11650;DHT22;5881;48.522;7.682;2024-02-21T06:11:21;3.90;99.90
11650;DHT22;5881;48.522;7.682;2024-02-21T06:13:46;3.90;1.00
11650;DHT22;5881;48.522;7.682;2024-02-21T06:16:12;4.00;99.90
11650;DHT22;5881;48.522;7.682;2024-02-21T06:18:38;3.90;99.90
11650;DHT22;5881;48.522;7.682;2024-02-21T06:21:04;3.90;99.90
11650;DHT22;5881;48.522;7.682;2024-02-21T06:23:30;3.90;1.00
11650;DHT22;5881;48.522;7.682;2024-02-21T06:25:55;3.90;99.90
11650;DHT22;5881;48.522;7.682;2024-02-21T06:28:21;3.90;1.00
11650;DHT22;5881;48.522;7.682;2024-02-21T06:30:47;4.00;99.90
11650;DHT22;5881;48.522;7.682;2024-02-21T06:33:12;4.10;1.00
11650;DHT22;5881;48.522;7.682;2024-02-21T06:35:38;4.10;1.00
11650;DHT22;5881;48.522;7.682;2024-02-21T06:38:08;4.10;1.00
11650;DHT22;5881;48.522;7.682;2024-02-21T06:40:33;4.10;19.40
11650;DHT22;5881;48.522;7.682;2024-02-21T06:43:04;4.20;1.00
11650;DHT22;5881;48.522;7.682;2024-02-21T06:45:30;4.20;1.00
11650;DHT22;5881;48.522;7.682;2024-02-21T06:47:56;4.30;99.90
11650;DHT22;5881;48.522;7.682;2024-02-21T06:50:21;4.20;1.00
11650;DHT22;5881;48.522;7.682;2024-02-21T06:52:47;4.30;1.00
11650;DHT22;5881;48.522;7.682;2024-02-21T06:55:12;4.40;1.00
11650;DHT22;5881;48.522;7.682;2024-02-21T06:57:38;4.40;1.00
11650;DHT22;5881;48.522;7.682;2024-02-21T07:00:05;4.50;99.90
11650;DHT22;5881;48.522;7.682;2024-02-21T07:02:33;4.60;1.00
11650;DHT22;5881;48.522;7.682;2024-02-21T07:04:59;4.80;1.00
11650;DHT22;5881;48.522;7.682;2024-02-21T07:07:25;4.90;1.00
11650;DHT22;5881;48.522;7.682;2024-02-21T07:09:50;4.90;1.00
11650;DHT22;5881;48.522;7.682;2024-02-21T07:12:16;5.00;99.90
11650;DHT22;5881;48.522;7.682;2024-02-21T07:14:42;5.10;99.90
11650;DHT22;5881;48.522;7.682;2024-02-21T07:17:08;5.10;20.10
11650;DHT22;5881;48.522;7.682;2024-02-21T07:19:33;5.20;1.00
11650;DHT22;5881;48.522;7.682;2024-02-21T07:22:00;5.20;1.00
11650;DHT22;5881;48.522;7.682;2024-02-21T07:24:26;5.30;1.00
11650;DHT22;5881;48.522;7.682;2024-02-21T07:26:52;5.20;1.00
11650;DHT22;5881;48.522;7.682;2024-02-21T07:29:18;5.30;1.00
11650;DHT22;5881;48.522;7.682;2024-02-21T07:31:44;5.40;1.00
11650;DHT22;5881;48.522;7.682;2024-02-21T07:34:10;5.40;1.00
11650;DHT22;5881;48.522;7.682;2024-02-21T07:36:36;5.40;1.00
11650;DHT22;5881;48.522;7.682;2024-02-21T07:39:04;5.40;1.00
11650;DHT22;5881;48.522;7.682;2024-02-21T07:41:30;5.50;1.00
11650;DHT22;5881;48.522;7.682;2024-02-21T07:43:56;5.60;1.00
11650;DHT22;5881;48.522;7.682;2024-02-21T07:46:22;5.60;1.00
11650;DHT22;5881;48.522;7.682;2024-02-21T07:48:48;5.70;1.00
11650;DHT22;5881;48.522;7.682;2024-02-21T07:51:14;5.60;1.00
11650;DHT22;5881;48.522;7.682;2024-02-21T07:53:39;5.80;1.00
11650;DHT22;5881;48.522;7.682;2024-02-21T07:56:10;5.70;1.00
11650;DHT22;5881;48.522;7.682;2024-02-21T07:58:36;5.80;1.00
11650;DHT22;5881;48.522;7.682;2024-02-21T08:01:01;5.80;1.00
11650;DHT22;5881;48.522;7.682;2024-02-21T08:03:27;5.90;99.90
11650;DHT22;5881;48.522;7.682;2024-02-21T08:05:53;6.00;1.00
11650;DHT22;5881;48.522;7.682;2024-02-21T08:08:18;6.10;1.00
11650;DHT22;5881;48.522;7.682;2024-02-21T08:10:46;6.20;99.90
11650;DHT22;5881;48.522;7.682;2024-02-21T08:13:11;6.40;99.90
11650;DHT22;5881;48.522;7.682;2024-02-21T08:15:37;6.70;99.90
11650;DHT22;5881;48.522;7.682;2024-02-21T08:18:05;6.60;99.90
11650;DHT22;5881;48.522;7.682;2024-02-21T08:20:30;6.80;99.90
11650;DHT22;5881;48.522;7.682;2024-02-21T08:22:56;6.80;99.90
11650;DHT22;5881;48.522;7.682;2024-02-21T08:25:21;6.90;99.90
11650;DHT22;5881;48.522;7.682;2024-02-21T08:27:47;7.10;99.90
11650;DHT22;5881;48.522;7.682;2024-02-21T08:30:13;7.30;99.90
11650;DHT22;5881;48.522;7.682;2024-02-21T08:32:39;7.20;99.90
11650;DHT22;5881;48.522;7.682;2024-02-21T08:35:04;7.30;99.90
11650;DHT22;5881;48.522;7.682;2024-02-21T08:37:30;7.20;99.90
11650;DHT22;5881;48.522;7.682;2024-02-21T08:39:56;7.20;99.90
11650;DHT22;5881;48.522;7.682;2024-02-21T08:42:22;7.20;99.90
11650;DHT22;5881;48.522;7.682;2024-02-21T08:44:48;7.40;99.90
11650;DHT22;5881;48.522;7.682;2024-02-21T08:47:13;7.40;99.90
11650;DHT22;5881;48.522;7.682;2024-02-21T08:49:39;7.40;99.90
11650;DHT22;5881;48.522;7.682;2024-02-21T08:52:04;7.50;99.90
11650;DHT22;5881;48.522;7.682;2024-02-21T08:54:31;7.60;99.90
11650;DHT22;5881;48.522;7.682;2024-02-21T08:56:58;7.50;99.90
11650;DHT22;5881;48.522;7.682;2024-02-21T08:59:23;7.90;99.90
11650;DHT22;5881;48.522;7.682;2024-02-21T09:01:50;7.90;99.90
11650;DHT22;5881;48.522;7.682;2024-02-21T09:04:17;8.00;99.90
11650;DHT22;5881;48.522;7.682;2024-02-21T09:06:43;8.10;99.90
11650;DHT22;5881;48.522;7.682;2024-02-21T09:09:10;8.40;99.90
11650;DHT22;5881;48.522;7.682;2024-02-21T09:11:36;8.40;99.90
11650;DHT22;5881;48.522;7.682;2024-02-21T09:14:01;8.60;99.90
11650;DHT22;5881;48.522;7.682;2024-02-21T09:16:32;8.80;99.90
11650;DHT22;5881;48.522;7.682;2024-02-21T09:18:58;9.30;99.90
11650;DHT22;5881;48.522;7.682;2024-02-21T09:21:23;9.80;99.90
11650;DHT22;5881;48.522;7.682;2024-02-21T09:23:49;9.90;99.90
11650;DHT22;5881;48.522;7.682;2024-02-21T09:26:14;9.90;99.90
11650;DHT22;5881;48.522;7.682;2024-02-21T09:28:43;10.20;99.90
11650;DHT22;5881;48.522;7.682;2024-02-21T09:31:09;9.50;99.90
11650;DHT22;5881;48.522;7.682;2024-02-21T09:33:35;9.20;99.90
11650;DHT22;5881;48.522;7.682;2024-02-21T09:36:01;8.90;99.90
11650;DHT22;5881;48.522;7.682;2024-02-21T09:38:27;9.00;99.90
11650;DHT22;5881;48.522;7.682;2024-02-21T09:43:44;9.00;99.90
11650;DHT22;5881;48.522;7.682;2024-02-21T09:46:17;9.30;99.90
11650;DHT22;5881;48.522;7.682;2024-02-21T09:51:21;9.80;99.90
11650;DHT22;5881;48.522;7.682;2024-02-21T09:53:48;9.60;99.90
11650;DHT22;5881;48.522;7.682;2024-02-21T09:56:14;10.00;99.90
11650;DHT22;5881;48.522;7.682;2024-02-21T09:58:39;10.10;99.90
11650;DHT22;5881;48.522;7.682;2024-02-21T10:01:06;10.30;99.90
11650;DHT22;5881;48.522;7.682;2024-02-21T10:03:34;10.10;99.90
11650;DHT22;5881;48.522;7.682;2024-02-21T10:06:00;10.20;99.90
11650;DHT22;5881;48.522;7.682;2024-02-21T10:08:26;10.10;99.90
11650;DHT22;5881;48.522;7.682;2024-02-21T10:10:52;10.30;99.90
11650;DHT22;5881;48.522;7.682;2024-02-21T10:13:26;10.20;99.90
11650;DHT22;5881;48.522;7.682;2024-02-21T10:16:06;10.30;99.90
11650;DHT22;5881;48.522;7.682;2024-02-21T10:18:33;10.70;99.90
11650;DHT22;5881;48.522;7.682;2024-02-21T10:21:06;10.60;99.90
11650;DHT22;5881;48.522;7.682;2024-02-21T10:23:45;10.70;99.90
11650;DHT22;5881;48.522;7.682;2024-02-21T10:26:10;10.90;99.90
11650;DHT22;5881;48.522;7.682;2024-02-21T10:28:37;10.60;99.90
11650;DHT22;5881;48.522;7.682;2024-02-21T10:31:11;10.50;99.90
11650;DHT22;5881;48.522;7.682;2024-02-21T10:33:54;10.80;99.90
11650;DHT22;5881;48.522;7.682;2024-02-21T10:36:21;11.20;99.90
11650;DHT22;5881;48.522;7.682;2024-02-21T10:38:47;11.20;99.90
11650;DHT22;5881;48.522;7.682;2024-02-21T10:41:16;11.40;99.90
11650;DHT22;5881;48.522;7.682;2024-02-21T10:43:49;11.40;99.90
11650;DHT22;5881;48.522;7.682;2024-02-21T10:46:18;11.40;99.90
11650;DHT22;5881;48.522;7.682;2024-02-21T10:48:45;11.20;99.90
11650;DHT22;5881;48.522;7.682;2024-02-21T10:56:37;11.50;99.90
11650;DHT22;5881;48.522;7.682;2024-02-21T10:59:08;11.10;99.90
11650;DHT22;5881;48.522;7.682;2024-02-21T11:01:34;11.20;99.90
11650;DHT22;5881;48.522;7.682;2024-02-21T11:04:05;10.90;99.90
11650;DHT22;5881;48.522;7.682;2024-02-21T11:06:32;11.10;99.90
11650;DHT22;5881;48.522;7.682;2024-02-21T11:11:25;11.20;99.90
11650;DHT22;5881;48.522;7.682;2024-02-21T11:13:51;10.90;99.90
11650;DHT22;5881;48.522;7.682;2024-02-21T11:16:23;11.40;99.90
11650;DHT22;5881;48.522;7.682;2024-02-21T11:18:49;11.40;99.90
11650;DHT22;5881;48.522;7.682;2024-02-21T11:21:15;11.10;99.90
11650;DHT22;5881;48.522;7.682;2024-02-21T11:23:41;11.10;99.90
11650;DHT22;5881;48.522;7.682;2024-02-21T11:26:10;11.40;99.90
11650;DHT22;5881;48.522;7.682;2024-02-21T11:28:36;11.70;99.90
11650;DHT22;5881;48.522;7.682;2024-02-21T11:31:12;11.50;99.90
11650;DHT22;5881;48.522;7.682;2024-02-21T11:33:42;11.20;99.90
11650;DHT22;5881;48.522;7.682;2024-02-21T11:36:08;11.20;99.90
11650;DHT22;5881;48.522;7.682;2024-02-21T11:38:34;11.40;99.90
11650;DHT22;5881;48.522;7.682;2024-02-21T11:41:00;11.40;99.90
11650;DHT22;5881;48.522;7.682;2024-02-21T11:43:26;11.60;99.90
11650;DHT22;5881;48.522;7.682;2024-02-21T11:46:02;11.30;99.90
11650;DHT22;5881;48.522;7.682;2024-02-21T11:48:29;11.00;99.90
11650;DHT22;5881;48.522;7.682;2024-02-21T11:50:56;10.90;99.90
11650;DHT22;5881;48.522;7.682;2024-02-21T11:53:22;10.80;99.90
11650;DHT22;5881;48.522;7.682;2024-02-21T11:55:47;11.00;99.90
11650;DHT22;5881;48.522;7.682;2024-02-21T11:58:14;11.00;99.90
11650;DHT22;5881;48.522;7.682;2024-02-21T12:00:40;11.00;99.90
11650;DHT22;5881;48.522;7.682;2024-02-21T12:03:07;11.10;99.90
11650;DHT22;5881;48.522;7.682;2024-02-21T12:05:33;11.30;99.90
11650;DHT22;5881;48.522;7.682;2024-02-21T12:07:59;11.20;99.90
11650;DHT22;5881;48.522;7.682;2024-02-21T12:10:26;11.40;99.90
11650;DHT22;5881;48.522;7.682;2024-02-21T12:12:52;11.40;99.90
11650;DHT22;5881;48.522;7.682;2024-02-21T12:15:20;11.30;99.90
11650;DHT22;5881;48.522;7.682;2024-02-21T12:17:45;11.40;99.90
11650;DHT22;5881;48.522;7.682;2024-02-21T12:20:11;11.40;99.90
11650;DHT22;5881;48.522;7.682;2024-02-21T12:22:49;11.50;99.90
11650;DHT22;5881;48.522;7.682;2024-02-21T12:25:22;11.40;99.90
11650;DHT22;5881;48.522;7.682;2024-02-21T12:27:48;11.40;99.90
11650;DHT22;5881;48.522;7.682;2024-02-21T12:30:15;11.50;99.90
11650;DHT22;5881;48.522;7.682;2024-02-21T12:32:41;11.40;99.90
11650;DHT22;5881;48.522;7.682;2024-02-21T12:35:07;11.50;99.90
11650;DHT22;5881;48.522;7.682;2024-02-21T12:37:33;11.60;99.90
11650;DHT22;5881;48.522;7.682;2024-02-21T12:39:59;11.70;99.90
11650;DHT22;5881;48.522;7.682;2024-02-21T12:42:25;11.50;99.90
11650;DHT22;5881;48.522;7.682;2024-02-21T12:44:54;11.30;99.90
11650;DHT22;5881;48.522;7.682;2024-02-21T12:47:19;11.40;99.90
11650;DHT22;5881;48.522;7.682;2024-02-21T12:49:49;11.50;99.90
11650;DHT22;5881;48.522;7.682;2024-02-21T12:52:48;11.60;99.90
11650;DHT22;5881;48.522;7.682;2024-02-21T12:55:20;11.60;99.90
11650;DHT22;5881;48.522;7.682;2024-02-21T12:57:46;11.60;99.90
11650;DHT22;5881;48.522;7.682;2024-02-21T13:00:12;11.80;99.90
11650;DHT22;5881;48.522;7.682;2024-02-21T13:02:38;11.80;99.90
11650;DHT22;5881;48.522;7.682;2024-02-21T13:05:04;11.60;99.90
11650;DHT22;5881;48.522;7.682;2024-02-21T13:07:30;11.70;99.90
11650;DHT22;5881;48.522;7.682;2024-02-21T13:09:57;11.60;99.90
11650;DHT22;5881;48.522;7.682;2024-02-21T13:12:23;11.80;99.90
11650;DHT22;5881;48.522;7.682;2024-02-21T13:14:48;11.90;99.90
11650;DHT22;5881;48.522;7.682;2024-02-21T13:17:14;12.00;99.90
11650;DHT22;5881;48.522;7.682;2024-02-21T13:19:42;12.00;99.90
11650;DHT22;5881;48.522;7.682;2024-02-21T13:22:07;12.10;99.90
11650;DHT22;5881;48.522;7.682;2024-02-21T13:24:33;12.00;99.90
11650;DHT22;5881;48.522;7.682;2024-02-21T13:26:59;12.00;99.90
11650;DHT22;5881;48.522;7.682;2024-02-21T13:29:24;11.90;99.90
11650;DHT22;5881;48.522;7.682;2024-02-21T13:31:50;12.00;99.90
11650;DHT22;5881;48.522;7.682;2024-02-21T13:34:16;11.90;99.90
11650;DHT22;5881;48.522;7.682;2024-02-21T13:36:42;12.00;99.90
11650;DHT22;5881;48.522;7.682;2024-02-21T13:39:08;12.00;99.90
11650;DHT22;5881;48.522;7.682;2024-02-21T13:41:34;11.90;99.90
11650;DHT22;5881;48.522;7.682;2024-02-21T13:44:00;11.90;99.90
11650;DHT22;5881;48.522;7.682;2024-02-21T13:46:25;11.90;99.90
11650;DHT22;5881;48.522;7.682;2024-02-21T13:48:58;11.90;99.90
11650;DHT22;5881;48.522;7.682;2024-02-21T13:51:26;12.00;99.90
11650;DHT22;5881;48.522;7.682;2024-02-21T13:53:52;11.90;99.90
11650;DHT22;5881;48.522;7.682;2024-02-21T13:56:18;11.80;99.90
11650;DHT22;5881;48.522;7.682;2024-02-21T13:58:44;11.70;99.90
11650;DHT22;5881;48.522;7.682;2024-02-21T14:01:09;11.70;99.90
11650;DHT22;5881;48.522;7.682;2024-02-21T14:03:35;11.70;99.90
11650;DHT22;5881;48.522;7.682;2024-02-21T14:06:00;11.70;99.90
11650;DHT22;5881;48.522;7.682;2024-02-21T14:08:26;11.70;99.90
11650;DHT22;5881;48.522;7.682;2024-02-21T14:10:51;11.80;99.90
11650;DHT22;5881;48.522;7.682;2024-02-21T14:13:17;11.70;99.90
11650;DHT22;5881;48.522;7.682;2024-02-21T14:15:44;11.70;99.90
11650;DHT22;5881;48.522;7.682;2024-02-21T14:18:11;11.80;99.90
11650;DHT22;5881;48.522;7.682;2024-02-21T14:20:39;11.60;99.90
11650;DHT22;5881;48.522;7.682;2024-02-21T14:23:04;11.70;99.90
11650;DHT22;5881;48.522;7.682;2024-02-21T14:25:30;11.70;99.90
11650;DHT22;5881;48.522;7.682;2024-02-21T14:27:55;11.70;99.90
11650;DHT22;5881;48.522;7.682;2024-02-21T14:30:21;11.70;99.90
11650;DHT22;5881;48.522;7.682;2024-02-21T14:32:47;11.80;99.90
11650;DHT22;5881;48.522;7.682;2024-02-21T14:35:12;11.70;99.90
11650;DHT22;5881;48.522;7.682;2024-02-21T14:37:38;11.70;99.90
11650;DHT22;5881;48.522;7.682;2024-02-21T14:40:04;11.70;99.90
11650;DHT22;5881;48.522;7.682;2024-02-21T14:42:29;11.80;99.90
11650;DHT22;5881;48.522;7.682;2024-02-21T14:44:55;11.80;99.90
11650;DHT22;5881;48.522;7.682;2024-02-21T14:47:30;11.70;99.90
11650;DHT22;5881;48.522;7.682;2024-02-21T14:49:56;11.80;99.90
11650;DHT22;5881;48.522;7.682;2024-02-21T14:52:21;11.70;99.90
11650;DHT22;5881;48.522;7.682;2024-02-21T14:54:47;11.70;99.90
11650;DHT22;5881;48.522;7.682;2024-02-21T14:57:17;11.70;99.90
11650;DHT22;5881;48.522;7.682;2024-02-21T14:59:43;11.70;99.90
11650;DHT22;5881;48.522;7.682;2024-02-21T15:02:08;11.70;99.90
11650;DHT22;5881;48.522;7.682;2024-02-21T15:04:35;11.60;99.90
11650;DHT22;5881;48.522;7.682;2024-02-21T15:07:01;11.70;99.90
11650;DHT22;5881;48.522;7.682;2024-02-21T15:09:27;11.60;99.90
11650;DHT22;5881;48.522;7.682;2024-02-21T15:11:53;11.60;99.90
11650;DHT22;5881;48.522;7.682;2024-02-21T15:14:19;11.60;99.90
11650;DHT22;5881;48.522;7.682;2024-02-21T15:16:45;11.60;99.90
11650;DHT22;5881;48.522;7.682;2024-02-21T15:19:11;11.60;99.90
11650;DHT22;5881;48.522;7.682;2024-02-21T15:21:37;11.60;99.90
11650;DHT22;5881;48.522;7.682;2024-02-21T15:24:02;11.70;99.90
11650;DHT22;5881;48.522;7.682;2024-02-21T15:26:29;11.60;99.90
11650;DHT22;5881;48.522;7.682;2024-02-21T15:28:55;11.70;99.90
11650;DHT22;5881;48.522;7.682;2024-02-21T15:31:24;11.60;99.90
11650;DHT22;5881;48.522;7.682;2024-02-21T15:33:51;11.50;99.90
11650;DHT22;5881;48.522;7.682;2024-02-21T15:36:17;11.50;99.90
11650;DHT22;5881;48.522;7.682;2024-02-21T15:38:43;11.50;99.90
11650;DHT22;5881;48.522;7.682;2024-02-21T15:41:11;11.50;99.90
11650;DHT22;5881;48.522;7.682;2024-02-21T15:43:38;11.50;99.90
11650;DHT22;5881;48.522;7.682;2024-02-21T15:46:04;11.60;99.90
11650;DHT22;5881;48.522;7.682;2024-02-21T15:48:30;11.60;99.90
11650;DHT22;5881;48.522;7.682;2024-02-21T15:50:56;11.60;99.90
11650;DHT22;5881;48.522;7.682;2024-02-21T15:53:22;11.50;99.90
11650;DHT22;5881;48.522;7.682;2024-02-21T15:55:49;11.50;99.90
11650;DHT22;5881;48.522;7.682;2024-02-21T15:58:14;11.50;99.90
11650;DHT22;5881;48.522;7.682;2024-02-21T16:00:40;11.50;99.90
11650;DHT22;5881;48.522;7.682;2024-02-21T16:03:05;11.50;99.90
11650;DHT22;5881;48.522;7.682;2024-02-21T16:05:31;11.50;99.90